Time;durP1;ratioP1;P1;durP2;ratioP2;P2;SDS_P1;SDS_P2;PMS_P1;PMS_P2;Temp;Humidity;BMP_temperature;BMP_pressure;BME280_temperature;BME280_humidity;BME280_pressure;Samples;Min_cycle;Max_cycle;Signal;HPM_P1;HPM_P2
2021/03/29 00:00:25;;;;;;;9.57;4.90;;;13.00;66.90;;;;;;5034293;28;20722;-80
2021/03/29 00:02:58;;;;;;;10.23;4.70;;;13.00;66.80;;;;;;5035089;28;20165;-79
2021/03/29 00:05:27;;;;;;;9.52;4.80;;;13.00;66.70;;;;;;5017255;28;20188;-79
2021/03/29 00:08:08;;;;;;;7.25;4.60;;;13.00;66.90;;;;;;5033684;28;20266;-80
2021/03/29 00:10:36;;;;;;;7.50;4.20;;;13.00;67.20;;;;;;5052149;28;20173;-79
2021/03/29 00:13:03;;;;;;;6.68;3.63;;;13.00;66.70;;;;;;5034070;28;20218;-79
2021/03/29 00:15:41;;;;;;;9.57;5.00;;;13.00;66.80;;;;;;5051785;28;20664;-79
2021/03/29 00:18:10;;;;;;;6.55;4.03;;;13.00;67.30;;;;;;5033636;28;20196;-80
2021/03/29 00:20:40;;;;;;;6.63;4.55;;;13.00;67.10;;;;;;5017388;28;20205;-79
2021/03/29 00:23:06;;;;;;;10.30;5.88;;;13.00;67.10;;;;;;5051780;28;20165;-80
2021/03/29 00:25:33;;;;;;;8.40;3.90;;;13.00;67.00;;;;;;5051703;28;20593;-79
2021/03/29 00:27:59;;;;;;;10.20;4.30;;;13.00;67.30;;;;;;5033375;28;20195;-80
2021/03/29 00:30:36;;;;;;;6.78;4.00;;;13.00;67.40;;;;;;5033959;28;20525;-80
2021/03/29 00:33:05;;;;;;;6.63;4.07;;;13.00;68.50;;;;;;5052986;28;20176;-79
2021/03/29 00:35:34;;;;;;;6.65;3.70;;;13.00;68.20;;;;;;5037451;28;20189;-79
2021/03/29 00:38:00;;;;;;;7.78;4.05;;;13.00;67.90;;;;;;5033429;28;20173;-79
2021/03/29 00:40:27;;;;;;;10.77;3.90;;;13.00;67.40;;;;;;5051526;28;20204;-80
2021/03/29 00:43:00;;;;;;;7.28;3.50;;;13.00;67.60;;;;;;5017750;28;20648;-80
2021/03/29 00:45:27;;;;;;;6.05;3.53;;;13.00;67.80;;;;;;5051786;28;20193;-80
2021/03/29 00:47:54;;;;;;;7.60;3.50;;;13.00;67.40;;;;;;5033715;28;20165;-80
2021/03/29 00:50:32;;;;;;;6.13;3.47;;;13.00;67.70;;;;;;5051691;28;20593;-80
2021/03/29 00:53:03;;;;;;;9.05;3.92;;;13.00;67.90;;;;;;5018110;28;20175;-80
2021/03/29 00:55:30;;;;;;;5.55;3.30;;;13.00;67.60;;;;;;5033638;28;20207;-80
2021/03/29 00:57:57;;;;;;;9.00;3.95;;;13.00;68.00;;;;;;5051673;28;20514;-80
2021/03/29 01:00:35;;;;;;;10.60;4.65;;;13.00;67.60;;;;;;5033846;28;20846;-80
2021/03/29 01:03:03;;;;;;;8.15;4.30;;;13.00;68.10;;;;;;5034607;28;20666;-80
2021/03/29 01:05:29;;;;;;;6.43;3.58;;;12.90;67.80;;;;;;5051664;28;20181;-80
2021/03/29 01:07:57;;;;;;;4.77;3.80;;;12.90;67.50;;;;;;5033433;28;20692;-79
2021/03/29 01:10:23;;;;;;;6.30;4.35;;;12.90;67.80;;;;;;5019468;28;20571;-79
2021/03/29 01:12:49;;;;;;;6.17;3.73;;;12.90;67.70;;;;;;5054447;28;20169;-79
2021/03/29 01:15:20;;;;;;;8.80;4.18;;;12.80;67.80;;;;;;5034278;28;20189;-79
2021/03/29 01:17:47;;;;;;;6.20;4.40;;;12.80;68.00;;;;;;5033917;28;20806;-79
2021/03/29 01:20:28;;;;;;;11.00;4.20;;;12.80;68.00;;;;;;5055319;28;20562;-80
2021/03/29 01:22:55;;;;;;;8.13;2.92;;;12.70;69.10;;;;;;5055659;28;20176;-79
2021/03/29 01:25:42;;;;;;;5.20;3.00;;;12.70;68.20;;;;;;5037483;28;20196;-80
2021/03/29 01:28:19;;;;;;;7.05;3.83;;;12.70;68.80;;;;;;5055137;28;20248;-79
2021/03/29 01:30:46;;;;;;;7.15;3.40;;;12.60;69.80;;;;;;5037179;28;20192;-79
2021/03/29 01:33:13;;;;;;;8.98;3.58;;;12.60;68.50;;;;;;5037310;28;20165;-78
2021/03/29 01:35:50;;;;;;;6.45;3.75;;;12.60;68.50;;;;;;5037026;28;20188;-79
2021/03/29 01:38:16;;;;;;;8.77;3.83;;;12.50;68.90;;;;;;5054844;28;20179;-78
2021/03/29 01:40:43;;;;;;;8.20;4.78;;;12.50;68.90;;;;;;5037202;28;20232;-79
2021/03/29 01:43:11;;;;;;;8.50;4.28;;;12.50;69.20;;;;;;5055303;28;20169;-79
2021/03/29 01:45:38;;;;;;;5.60;3.03;;;12.50;69.10;;;;;;5055289;28;20193;-79
2021/03/29 01:48:06;;;;;;;9.07;3.63;;;12.40;69.50;;;;;;5025563;28;20165;-79
2021/03/29 01:50:38;;;;;;;7.57;4.00;;;12.40;70.30;;;;;;5038271;28;20207;-79
2021/03/29 01:53:06;;;;;;;8.38;5.07;;;12.30;69.90;;;;;;5055846;28;20268;-79
2021/03/29 01:55:33;;;;;;;9.25;4.65;;;12.30;70.10;;;;;;5055094;28;20278;-80
2021/03/29 01:58:02;;;;;;;9.90;4.15;;;12.30;70.70;;;;;;5054289;28;20169;-78
2021/03/29 02:00:42;;;;;;;6.75;3.38;;;12.20;70.30;;;;;;5054529;28;20295;-78
2021/03/29 02:03:10;;;;;;;6.65;3.78;;;12.20;70.90;;;;;;5054615;28;20175;-78
2021/03/29 02:05:37;;;;;;;6.25;3.35;;;12.20;71.10;;;;;;5055278;28;20189;-79
2021/03/29 02:08:04;;;;;;;8.45;4.20;;;12.10;71.00;;;;;;5054297;28;20253;-79
2021/03/29 02:10:34;;;;;;;9.07;3.58;;;12.10;71.90;;;;;;5036437;28;20180;-79
2021/03/29 02:13:06;;;;;;;8.38;3.17;;;12.10;71.40;;;;;;5036561;28;20169;-79
2021/03/29 02:15:32;;;;;;;5.85;3.85;;;12.00;71.40;;;;;;5054262;28;20188;-79
2021/03/29 02:18:05;;;;;;;9.63;4.82;;;12.00;72.10;;;;;;5053911;28;20234;-79
2021/03/29 02:20:37;;;;;;;5.93;3.55;;;12.00;72.20;;;;;;5036257;28;20192;-79
2021/03/29 02:23:06;;;;;;;5.45;3.97;;;11.90;71.60;;;;;;5053918;28;20536;-79
2021/03/29 02:25:34;;;;;;;9.68;4.85;;;12.00;72.10;;;;;;5058205;28;20551;-79
2021/03/29 02:28:02;;;;;;;7.20;3.65;;;11.90;71.70;;;;;;5053772;28;20188;-79
2021/03/29 02:30:35;;;;;;;7.32;3.72;;;11.90;72.20;;;;;;5019398;28;20177;-79
2021/03/29 02:33:04;;;;;;;5.80;3.08;;;11.90;72.10;;;;;;5019631;28;20166;-79
2021/03/29 02:35:31;;;;;;;7.15;4.47;;;11.90;72.00;;;;;;5035940;28;20192;-79
2021/03/29 02:37:59;;;;;;;10.30;3.88;;;11.80;71.90;;;;;;5053280;28;20181;-79
2021/03/29 02:40:27;;;;;;;4.35;2.92;;;11.80;72.20;;;;;;5053779;28;20291;-79
2021/03/29 02:42:56;;;;;;;7.55;3.30;;;11.80;72.30;;;;;;5053663;28;20173;-79
2021/03/29 02:45:29;;;;;;;8.13;3.83;;;11.80;72.60;;;;;;5053737;28;20268;-79
2021/03/29 02:48:08;;;;;;;8.52;3.80;;;11.80;73.00;;;;;;5053562;28;20166;-79
2021/03/29 02:50:37;;;;;;;5.43;3.55;;;11.70;73.40;;;;;;5035762;28;20174;-79
2021/03/29 02:53:09;;;;;;;7.50;3.60;;;11.70;72.90;;;;;;5053616;28;20543;-79
2021/03/29 02:55:37;;;;;;;6.25;2.97;;;11.70;72.80;;;;;;5053410;28;20204;-80
2021/03/29 02:58:05;;;;;;;6.38;4.07;;;11.70;72.90;;;;;;5035548;28;20177;-80
2021/03/29 03:00:33;;;;;;;7.95;3.97;;;11.70;73.70;;;;;;5035487;28;20271;-79
2021/03/29 03:03:01;;;;;;;7.25;4.18;;;11.70;73.30;;;;;;5058030;28;20173;-79
2021/03/29 03:05:29;;;;;;;9.77;4.63;;;11.70;73.50;;;;;;5035534;28;20279;-80
2021/03/29 03:07:56;;;;;;;7.85;3.65;;;11.70;74.40;;;;;;5052974;28;20185;-79
2021/03/29 03:10:23;;;;;;;5.85;3.55;;;11.60;73.70;;;;;;5035696;28;20173;-79
2021/03/29 03:12:50;;;;;;;7.97;3.28;;;11.70;73.70;;;;;;5035256;28;20177;-79
2021/03/29 03:15:19;;;;;;;10.40;3.33;;;11.70;74.10;;;;;;5052825;28;20258;-79
2021/03/29 03:17:46;;;;;;;8.23;3.88;;;11.60;73.70;;;;;;5052292;28;20176;-79
2021/03/29 03:20:14;;;;;;;8.60;3.35;;;11.60;73.70;;;;;;5052522;28;20243;-79
2021/03/29 03:22:54;;;;;;;7.30;3.60;;;11.60;73.70;;;;;;5052924;28;20161;-79
2021/03/29 03:25:26;;;;;;;7.60;3.20;;;11.60;74.40;;;;;;5034851;28;20185;-79
2021/03/29 03:27:53;;;;;;;8.07;4.63;;;11.60;73.90;;;;;;5052457;28;20562;-79
2021/03/29 03:30:22;;;;;;;5.03;3.15;;;11.50;74.50;;;;;;5034774;28;20223;-79
2021/03/29 03:32:49;;;;;;;5.90;3.47;;;11.50;74.60;;;;;;5052672;28;20165;-79
2021/03/29 03:35:17;;;;;;;7.95;3.40;;;11.50;74.60;;;;;;5034718;28;20188;-80
2021/03/29 03:38:01;;;;;;;8.63;5.50;;;11.50;74.60;;;;;;5034729;28;20179;-80
2021/03/29 03:40:30;;;;;;;5.95;3.85;;;11.40;75.70;;;;;;5055825;28;20315;-79
2021/03/29 03:43:00;;;;;;;6.68;3.55;;;11.50;75.10;;;;;;5052524;28;20210;-79
2021/03/29 03:45:39;;;;;;;4.90;3.33;;;11.40;75.00;;;;;;5052332;28;20283;-80
2021/03/29 03:48:06;;;;;;;6.90;3.55;;;11.40;75.80;;;;;;5051981;28;20172;-80
2021/03/29 03:50:32;;;;;;;11.20;3.58;;;11.40;75.80;;;;;;5052152;28;20193;-80
2021/03/29 03:53:00;;;;;;;8.95;3.80;;;11.40;75.30;;;;;;5052298;28;20247;-80
2021/03/29 03:55:27;;;;;;;7.70;3.92;;;11.40;75.80;;;;;;5051993;28;20571;-79
2021/03/29 03:57:53;;;;;;;8.88;4.47;;;11.40;76.10;;;;;;5052007;28;20551;-79
2021/03/29 04:00:21;;;;;;;7.33;3.90;;;11.30;76.00;;;;;;5034924;28;20197;-79
2021/03/29 04:02:49;;;;;;;8.43;3.90;;;11.30;76.30;;;;;;5018008;28;20560;-79
2021/03/29 04:05:16;;;;;;;11.20;4.45;;;11.30;77.10;;;;;;5052548;28;20195;-79
2021/03/29 04:07:45;;;;;;;6.93;3.45;;;11.30;76.40;;;;;;5052137;28;20232;-78
2021/03/29 04:12:38;;;;;;;7.40;4.20;;;11.20;76.30;;;;;;5052217;28;20177;-79
2021/03/29 04:15:24;;;;;;;5.20;3.33;;;11.20;76.30;;;;;;5037225;28;20196;-79
2021/03/29 04:17:50;;;;;;;11.52;3.60;;;11.20;76.70;;;;;;5057010;28;20165;-79
2021/03/29 04:20:17;;;;;;;8.40;3.78;;;11.20;77.30;;;;;;5051857;28;20553;-79
2021/03/29 04:22:43;;;;;;;5.22;3.08;;;11.10;77.90;;;;;;5051977;28;20762;-79
2021/03/29 04:25:12;;;;;;;6.15;3.67;;;11.10;77.10;;;;;;5051720;28;20279;-79
2021/03/29 04:27:51;;;;;;;5.47;3.50;;;11.20;77.70;;;;;;5051257;28;20169;-80
2021/03/29 04:30:18;;;;;;;4.23;2.70;;;11.10;77.50;;;;;;5051760;28;20698;-79
2021/03/29 04:32:48;;;;;;;7.03;3.35;;;11.10;77.20;;;;;;5051739;28;20169;-79
2021/03/29 04:35:14;;;;;;;7.60;3.65;;;11.10;78.20;;;;;;5051471;28;20181;-79
2021/03/29 04:37:41;;;;;;;6.35;3.20;;;11.10;78.80;;;;;;5051256;28;20169;-79
2021/03/29 04:40:07;;;;;;;6.53;2.80;;;11.10;77.90;;;;;;5051394;28;20601;-80
2021/03/29 04:42:33;;;;;;;9.63;4.20;;;11.10;78.10;;;;;;5051597;28;20528;-79
2021/03/29 04:44:59;;;;;;;6.70;2.97;;;11.10;79.70;;;;;;5033800;28;20193;-79
2021/03/29 04:47:25;;;;;;;5.97;3.30;;;11.10;79.00;;;;;;5051127;28;20157;-79
2021/03/29 04:49:50;;;;;;;6.13;2.73;;;11.10;79.10;;;;;;5051384;28;20575;-79
2021/03/29 04:52:16;;;;;;;4.87;3.33;;;11.10;78.70;;;;;;5053550;28;20203;-79
2021/03/29 04:54:42;;;;;;;9.20;3.00;;;11.10;78.70;;;;;;5041151;28;20288;-78
2021/03/29 04:57:08;;;;;;;5.93;2.70;;;11.10;78.90;;;;;;5050125;22;20221;-80
2021/03/29 04:59:36;;;;;;;8.63;3.75;;;11.00;78.80;;;;;;5036899;28;20197;-81
2021/03/29 05:02:02;;;;;;;6.72;3.20;;;11.10;78.80;;;;;;5009046;28;20165;-81
2021/03/29 05:04:29;;;;;;;8.82;3.65;;;11.10;78.80;;;;;;5037552;28;20176;-80
2021/03/29 05:06:55;;;;;;;6.90;4.18;;;11.10;78.90;;;;;;5004971;28;20179;-80
2021/03/29 05:09:21;;;;;;;4.13;2.63;;;11.10;79.10;;;;;;4999559;28;20177;-80
2021/03/29 05:11:53;;;;;;;7.82;3.05;;;11.00;79.00;;;;;;5017651;28;20187;-80
2021/03/29 05:14:20;;;;;;;9.38;2.58;;;11.10;79.20;;;;;;5002141;28;20174;-79
2021/03/29 05:16:47;;;;;;;4.80;2.67;;;11.00;79.20;;;;;;5017060;28;20202;-80
2021/03/29 05:19:14;;;;;;;5.78;3.35;;;11.00;79.30;;;;;;5034196;28;20170;-81
2021/03/29 05:21:40;;;;;;;6.90;3.90;;;11.00;79.50;;;;;;5001111;28;20174;-80
2021/03/29 05:24:07;;;;;;;7.85;3.25;;;11.00;79.60;;;;;;5017332;28;20605;-81
2021/03/29 05:26:34;;;;;;;7.80;3.90;;;11.00;79.90;;;;;;5016565;28;20197;-81
2021/03/29 05:29:00;;;;;;;4.78;3.45;;;11.00;79.90;;;;;;5033732;28;20565;-82
2021/03/29 05:31:27;;;;;;;7.88;3.95;;;11.00;80.10;;;;;;5017193;28;20173;-80
2021/03/29 05:33:53;;;;;;;6.27;3.30;;;11.00;81.40;;;;;;5000726;28;20220;-81
2021/03/29 05:36:19;;;;;;;9.02;3.80;;;11.00;81.90;;;;;;5034485;28;20635;-81
2021/03/29 05:38:45;;;;;;;6.80;3.60;;;11.00;82.00;;;;;;5033319;28;20194;-79
2021/03/29 05:41:13;;;;;;;7.80;3.77;;;11.00;81.40;;;;;;5033460;28;20678;-81
2021/03/29 05:43:39;;;;;;;8.82;3.70;;;11.00;81.70;;;;;;5016823;28;20560;-81
2021/03/29 05:46:06;;;;;;;8.50;3.30;;;11.00;81.50;;;;;;5033368;28;20550;-81
2021/03/29 05:48:32;;;;;;;10.25;4.47;;;11.00;82.30;;;;;;5034211;28;20636;-81
2021/03/29 05:51:03;;;;;;;9.15;4.28;;;11.00;82.20;;;;;;5034653;28;20161;-81
2021/03/29 05:53:29;;;;;;;8.93;4.80;;;11.00;83.20;;;;;;4999283;28;20716;-80
2021/03/29 05:55:55;;;;;;;17.03;5.57;;;10.90;86.40;;;;;;5034481;28;20216;-81
2021/03/29 06:00:51;;;;;;;10.70;6.03;;;10.90;87.90;;;;;;5033006;28;20721;-81
2021/03/29 06:03:25;;;;;;;8.07;4.38;;;10.90;89.20;;;;;;5033497;28;20537;-81
2021/03/29 06:05:56;;;;;;;8.07;3.95;;;11.10;87.90;;;;;;5032814;28;20515;-80
2021/03/29 06:08:22;;;;;;;8.63;3.70;;;11.10;87.00;;;;;;5032606;28;20554;-80
2021/03/29 06:10:53;;;;;;;6.38;3.15;;;11.20;86.40;;;;;;5030674;28;20605;-81
2021/03/29 06:13:29;;;;;;;8.90;4.60;;;11.30;86.30;;;;;;5013350;28;20767;-80
2021/03/29 06:16:10;;;;;;;9.65;4.03;;;11.30;87.60;;;;;;5024027;28;20182;-81
2021/03/29 06:18:38;;;;;;;8.03;4.10;;;11.30;86.80;;;;;;5018778;28;20884;-81
2021/03/29 06:21:05;;;;;;;9.57;4.03;;;11.40;86.70;;;;;;5033810;28;20623;-80
2021/03/29 06:23:33;;;;;;;6.60;4.18;;;11.50;86.60;;;;;;5032592;28;20177;-80
2021/03/29 06:26:20;;;;;;;10.90;4.55;;;11.50;86.70;;;;;;5025308;28;20245;-80
2021/03/29 06:28:46;;;;;;;10.70;5.55;;;11.60;86.90;;;;;;5015621;28;20752;-80
2021/03/29 06:31:27;;;;;;;12.07;4.53;;;11.60;88.30;;;;;;5029039;28;20205;-80
2021/03/29 06:33:55;;;;;;;9.32;4.88;;;11.60;87.50;;;;;;5018796;28;20634;-80
2021/03/29 06:36:26;;;;;;;9.18;4.70;;;11.70;87.00;;;;;;5005728;28;20712;-79
2021/03/29 06:38:52;;;;;;;6.97;3.63;;;11.90;86.90;;;;;;5003888;28;20183;-81
2021/03/29 06:41:28;;;;;;;6.75;4.35;;;12.00;86.50;;;;;;5013339;28;20193;-80
2021/03/29 06:43:57;;;;;;;5.47;3.30;;;12.10;86.50;;;;;;5027945;28;20200;-82
2021/03/29 06:46:26;;;;;;;7.10;3.15;;;12.20;86.30;;;;;;5029258;28;20511;-80
2021/03/29 06:49:00;;;;;;;7.95;3.38;;;12.30;86.40;;;;;;5012577;28;20170;-80
2021/03/29 06:51:32;;;;;;;9.07;4.57;;;12.30;86.30;;;;;;5043572;28;20173;-82
2021/03/29 06:54:07;;;;;;;9.07;4.70;;;12.40;86.30;;;;;;5056432;28;20150;-83
2021/03/29 06:56:41;;;;;;;8.87;3.93;;;12.50;86.30;;;;;;5055051;28;20790;-82
2021/03/29 06:59:15;;;;;;;8.15;5.47;;;12.60;86.30;;;;;;5046524;28;20710;-83
2021/03/29 07:01:54;;;;;;;10.13;4.00;;;12.70;87.10;;;;;;5031874;28;20646;-82
2021/03/29 07:04:25;;;;;;;4.68;3.40;;;12.90;86.80;;;;;;5017315;28;20213;-83
2021/03/29 07:06:57;;;;;;;5.05;3.80;;;13.10;86.60;;;;;;5018539;28;20618;-83
2021/03/29 07:09:23;;;;;;;7.47;3.05;;;13.30;86.40;;;;;;5014737;28;20194;-83
2021/03/29 07:11:49;;;;;;;5.95;3.78;;;13.60;86.70;;;;;;5012003;28;20731;-82
2021/03/29 07:14:21;;;;;;;6.90;4.47;;;14.20;86.70;;;;;;5012048;28;20178;-81
2021/03/29 07:16:48;;;;;;;6.87;3.57;;;14.90;88.60;;;;;;5012118;28;20605;-80
2021/03/29 07:19:14;;;;;;;3.70;2.70;;;15.70;89.80;;;;;;5013832;28;20604;-80
2021/03/29 07:21:41;;;;;;;3.70;3.33;;;16.60;90.10;;;;;;5011851;28;20569;-81
2021/03/29 07:24:09;;;;;;;10.37;3.73;;;17.60;90.10;;;;;;4995375;28;20731;-82
2021/03/29 07:27:10;;;;;;;5.97;2.80;;;18.50;87.00;;;;;;5015128;28;20597;-81
2021/03/29 07:29:46;;;;;;;7.60;3.30;;;19.50;88.90;;;;;;5000285;28;20677;-80
2021/03/29 07:32:32;;;;;;;5.80;3.43;;;20.50;85.90;;;;;;5011528;28;21116;-81
2021/03/29 07:34:59;;;;;;;7.03;2.60;;;21.50;84.20;;;;;;5011607;28;20958;-81
2021/03/29 07:37:27;;;;;;;4.27;1.80;;;22.50;84.10;;;;;;5012263;28;20659;-80
2021/03/29 07:39:53;;;;;;;7.77;3.03;;;23.10;78.20;;;;;;5012443;28;20623;-81
2021/03/29 07:42:22;;;;;;;5.00;2.97;;;23.70;77.30;;;;;;5008138;28;21234;-79
2021/03/29 07:45:10;;;;;;;6.53;3.40;;;24.30;76.50;;;;;;4990548;28;20706;-81
2021/03/29 07:47:54;;;;;;;8.00;3.17;;;24.80;62.80;;;;;;5018642;28;20182;-80
2021/03/29 07:50:44;;;;;;;3.20;2.30;;;25.30;66.80;;;;;;5026795;28;20572;-80
2021/03/29 07:53:19;;;;;;;7.30;3.03;;;25.80;65.10;;;;;;5014582;28;20601;-80
2021/03/29 07:55:50;;;;;;;5.43;2.27;;;25.80;64.20;;;;;;5031876;28;20631;-80
2021/03/29 07:58:19;;;;;;;5.27;2.17;;;25.50;62.50;;;;;;5030505;28;21083;-79
2021/03/29 08:01:06;;;;;;;5.03;2.40;;;25.20;61.00;;;;;;5030573;28;21191;-80
2021/03/29 08:03:32;;;;;;;3.80;2.20;;;25.00;60.90;;;;;;5031992;28;20977;-79
2021/03/29 08:05:58;;;;;;;7.20;3.30;;;25.00;61.60;;;;;;5029712;28;20722;-81
2021/03/29 08:11:05;;;;;;;5.17;2.23;;;24.50;57.20;;;;;;5032300;28;20575;-79
2021/03/29 08:13:58;;;;;;;4.20;1.87;;;24.60;56.50;;;;;;5031679;28;20676;-80
2021/03/29 08:16:24;;;;;;;3.83;1.90;;;24.70;57.70;;;;;;5031514;28;20592;-80
2021/03/29 08:19:08;;;;;;;5.30;2.33;;;24.90;58.70;;;;;;5031780;28;20573;-80
2021/03/29 08:21:47;;;;;;;7.37;2.67;;;25.10;54.60;;;;;;5013951;28;20964;-79
2021/03/29 08:24:25;;;;;;;4.57;2.20;;;25.10;57.00;;;;;;5030759;28;21166;-80
2021/03/29 08:26:53;;;;;;;7.67;2.20;;;25.50;58.10;;;;;;5016452;28;20616;-80
2021/03/29 08:29:36;;;;;;;4.95;2.88;;;25.90;58.40;;;;;;5030580;28;20719;-80
2021/03/29 08:32:09;;;;;;;5.17;1.90;;;26.10;53.90;;;;;;5030279;28;20173;-79
2021/03/29 08:34:54;;;;;;;3.63;2.00;;;26.70;56.40;;;;;;5031733;28;21172;-80
2021/03/29 08:37:30;;;;;;;4.97;2.00;;;27.30;55.90;;;;;;5029763;28;20643;-79
2021/03/29 08:40:03;;;;;;;3.90;1.97;;;27.90;56.50;;;;;;5030290;28;21031;-81
2021/03/29 08:42:32;;;;;;;5.30;2.07;;;28.70;56.70;;;;;;5031722;28;20626;-80
2021/03/29 08:45:01;;;;;;;4.80;1.70;;;29.60;56.50;;;;;;5031849;28;20561;-83
2021/03/29 08:47:27;;;;;;;4.20;1.43;;;30.40;55.90;;;;;;5030011;28;20611;-80
2021/03/29 08:50:00;;;;;;;4.27;1.70;;;31.10;55.40;;;;;;5028958;28;20573;-80
2021/03/29 08:52:43;;;;;;;4.87;1.90;;;31.90;54.70;;;;;;5003083;28;20602;-81
2021/03/29 08:55:20;;;;;;;4.30;1.60;;;32.70;53.40;;;;;;5001337;28;20589;-81
2021/03/29 08:57:48;;;;;;;2.17;1.30;;;33.40;52.70;;;;;;4990495;28;20679;-79
2021/03/29 09:00:26;;;;;;;4.07;1.40;;;34.10;51.70;;;;;;4975422;28;20649;-81
2021/03/29 09:02:53;;;;;;;3.70;1.37;;;34.70;49.90;;;;;;4992040;28;20566;-81
2021/03/29 09:05:21;;;;;;;4.10;1.60;;;35.20;49.40;;;;;;4974650;28;21363;-81
2021/03/29 09:07:49;;;;;;;2.73;1.20;;;35.40;43.30;;;;;;4991173;28;20207;-81
2021/03/29 09:10:36;;;;;;;3.60;1.80;;;35.90;45.10;;;;;;5006198;28;20592;-79
2021/03/29 09:13:13;;;;;;;6.27;1.30;;;36.40;44.60;;;;;;5010408;28;20632;-79
2021/03/29 09:15:45;;;;;;;3.40;1.37;;;36.80;43.70;;;;;;5008425;28;20606;-78
2021/03/29 09:18:12;;;;;;;3.35;1.00;;;37.10;42.90;;;;;;5008823;28;21495;-78
2021/03/29 09:20:46;;;;;;;2.45;1.13;;;37.20;38.00;;;;;;5009544;28;20751;-78
2021/03/29 09:23:14;;;;;;;3.20;0.90;;;36.70;32.80;;;;;;5009274;28;20174;-79
2021/03/29 09:25:45;;;;;;;3.00;1.23;;;37.20;36.10;;;;;;5010375;28;20685;-79
2021/03/29 09:31:01;;;;;;;1.80;0.80;;;37.60;35.60;;;;;;5010486;28;20569;-78
2021/03/29 09:33:27;;;;;;;3.30;0.70;;;37.80;35.30;;;;;;4993221;28;20724;-79
2021/03/29 09:36:08;;;;;;;1.80;0.80;;;37.90;34.90;;;;;;5010040;28;20585;-79
2021/03/29 09:38:40;;;;;;;1.60;0.70;;;38.00;33.10;;;;;;5015557;28;20932;-78
2021/03/29 09:41:32;;;;;;;2.80;0.90;;;38.10;33.60;;;;;;5013530;28;20811;-78
2021/03/29 09:44:05;;;;;;;1.60;0.80;;;38.20;34.40;;;;;;5013078;28;20777;-78
2021/03/29 09:46:37;;;;;;;1.70;0.90;;;38.30;33.30;;;;;;4996273;28;20644;-78
2021/03/29 09:49:16;;;;;;;2.33;0.80;;;38.40;32.70;;;;;;5014525;28;20601;-77
2021/03/29 09:51:45;;;;;;;2.38;0.80;;;38.50;32.00;;;;;;5012875;28;20783;-78
2021/03/29 09:54:26;;;;;;;1.83;0.90;;;38.20;28.70;;;;;;5014496;28;20201;-77
2021/03/29 09:56:54;;;;;;;2.53;0.90;;;38.50;30.50;;;;;;5013655;28;20616;-77
2021/03/29 09:59:29;;;;;;;3.20;1.10;;;38.60;30.40;;;;;;5014305;28;20947;-77
2021/03/29 10:01:56;;;;;;;1.67;0.67;;;38.80;29.90;;;;;;5014192;28;20560;-79
2021/03/29 10:04:23;;;;;;;4.27;0.83;;;38.80;29.70;;;;;;5013012;28;20557;-78
2021/03/29 10:07:14;;;;;;;2.53;0.77;;;38.90;29.30;;;;;;5012670;28;20685;-77
2021/03/29 10:09:44;;;;;;;2.47;0.70;;;38.90;29.00;;;;;;5014267;28;20561;-79
2021/03/29 10:12:21;;;;;;;2.30;0.60;;;38.80;28.80;;;;;;5012903;28;20703;-78
2021/03/29 10:14:46;;;;;;;1.57;0.73;;;38.80;28.70;;;;;;5015775;28;20565;-77
2021/03/29 10:17:19;;;;;;;2.73;0.70;;;38.80;28.40;;;;;;5015885;28;21167;-78
2021/03/29 10:19:47;;;;;;;1.97;0.60;;;38.80;27.50;;;;;;5012589;28;20206;-78
2021/03/29 10:22:19;;;;;;;1.70;0.97;;;38.70;27.90;;;;;;5012759;28;20576;-78
2021/03/29 10:25:21;;;;;;;2.00;0.70;;;38.60;27.40;;;;;;5013741;28;20565;-77
2021/03/29 10:27:52;;;;;;;2.05;1.00;;;38.50;27.90;;;;;;5011341;28;21264;-78
2021/03/29 10:30:21;;;;;;;2.50;1.37;;;38.00;25.00;;;;;;5012491;28;20167;-78
2021/03/29 10:32:59;;;;;;;1.73;0.90;;;38.20;26.40;;;;;;5012497;28;21151;-77
2021/03/29 10:35:27;;;;;;;3.00;0.80;;;38.20;26.00;;;;;;5012282;28;20573;-78
2021/03/29 10:37:53;;;;;;;2.28;0.90;;;38.00;26.20;;;;;;5012281;28;20715;-77
2021/03/29 10:40:20;;;;;;;2.20;1.00;;;37.20;24.00;;;;;;5013506;28;20197;-78
2021/03/29 10:42:46;;;;;;;1.30;0.60;;;37.20;25.50;;;;;;5012161;28;21029;-78
2021/03/29 10:45:15;;;;;;;1.50;0.90;;;37.10;25.70;;;;;;5013328;28;21167;-78
2021/03/29 10:47:41;;;;;;;1.50;0.67;;;36.90;25.90;;;;;;5013060;28;20589;-78
2021/03/29 10:50:10;;;;;;;1.20;0.70;;;36.70;25.70;;;;;;5013126;28;20560;-78
2021/03/29 10:52:36;;;;;;;2.03;0.70;;;36.50;25.50;;;;;;5018576;28;20565;-79
2021/03/29 10:55:03;;;;;;;2.50;1.00;;;36.20;25.60;;;;;;5012473;28;20699;-77
2021/03/29 10:57:29;;;;;;;3.40;1.40;;;35.40;23.50;;;;;;5011061;28;20739;-76
2021/03/29 10:59:54;;;;;;;4.87;1.13;;;34.80;23.30;;;;;;5012991;28;20675;-76
2021/03/29 11:02:22;;;;;;;5.13;0.93;;;34.80;24.40;;;;;;5013156;28;20174;-75
2021/03/29 11:04:48;;;;;;;2.70;1.00;;;34.60;24.70;;;;;;5012065;28;20170;-75
2021/03/29 11:07:14;;;;;;;3.60;0.90;;;34.50;25.00;;;;;;5011453;28;20635;-75
2021/03/29 11:09:40;;;;;;;4.13;0.90;;;34.50;25.70;;;;;;5013140;28;20189;-75
2021/03/29 11:12:07;;;;;;;3.63;0.90;;;34.50;25.80;;;;;;5011690;28;20174;-75
2021/03/29 11:14:33;;;;;;;1.67;0.90;;;34.50;25.60;;;;;;5012956;28;20576;-76
2021/03/29 11:16:59;;;;;;;2.13;0.83;;;34.50;25.70;;;;;;5012500;28;21167;-75
2021/03/29 11:19:25;;;;;;;2.87;0.90;;;34.50;25.80;;;;;;5011505;28;20178;-75
2021/03/29 11:21:52;;;;;;;4.93;0.97;;;34.60;25.90;;;;;;5012863;28;20166;-75
2021/03/29 11:24:19;;;;;;;2.80;0.80;;;34.70;25.80;;;;;;5011561;28;20172;-75
2021/03/29 11:26:46;;;;;;;2.03;0.90;;;34.70;25.60;;;;;;5012261;28;20604;-75
2021/03/29 11:29:12;;;;;;;3.50;0.70;;;34.70;25.60;;;;;;5011353;28;21044;-76
2021/03/29 11:31:41;;;;;;;3.00;0.87;;;34.60;24.50;;;;;;5012679;28;20591;-76
2021/03/29 11:34:08;;;;;;;2.57;0.70;;;34.30;24.60;;;;;;4995000;28;20626;-74
2021/03/29 11:36:34;;;;;;;2.70;0.80;;;34.00;24.50;;;;;;5012021;28;20594;-75
2021/03/29 11:39:00;;;;;;;5.00;0.90;;;33.80;24.80;;;;;;4995092;28;20989;-75
2021/03/29 11:41:26;;;;;;;2.63;0.80;;;33.60;25.00;;;;;;5011279;28;20681;-75
2021/03/29 11:43:55;;;;;;;3.27;0.97;;;33.50;25.00;;;;;;5011593;28;20669;-75
2021/03/29 11:46:21;;;;;;;3.87;0.87;;;33.40;24.70;;;;;;5012216;28;20694;-74
2021/03/29 11:48:47;;;;;;;1.67;1.00;;;33.30;24.70;;;;;;5012243;28;20178;-75
2021/03/29 11:51:12;;;;;;;4.97;1.00;;;33.30;24.80;;;;;;5012357;28;20219;-75
2021/03/29 11:53:38;;;;;;;3.50;1.00;;;33.20;24.40;;;;;;5012297;28;20175;-75
2021/03/29 11:56:05;;;;;;;4.73;1.53;;;33.10;24.20;;;;;;5010187;28;20720;-75
2021/03/29 11:58:31;;;;;;;4.27;1.70;;;32.70;23.20;;;;;;5010547;28;20593;-75
2021/03/29 12:01:05;;;;;;;3.73;1.10;;;32.60;24.10;;;;;;5011674;28;20634;-76
2021/03/29 12:03:51;;;;;;;2.90;1.10;;;32.50;24.10;;;;;;5010619;28;20586;-76
2021/03/29 12:06:20;;;;;;;2.67;1.00;;;32.40;24.30;;;;;;5011910;28;21169;-76
2021/03/29 12:08:54;;;;;;;3.92;0.90;;;32.30;24.20;;;;;;5012158;28;20703;-76
2021/03/29 12:14:08;;;;;;;2.85;1.15;;;31.90;24.20;;;;;;5011137;28;20723;-76
2021/03/29 12:16:40;;;;;;;5.73;1.50;;;31.50;23.10;;;;;;5011422;28;20583;-75
2021/03/29 12:19:06;;;;;;;2.43;0.80;;;31.50;23.80;;;;;;5010703;28;21109;-76
2021/03/29 12:21:36;;;;;;;6.47;1.08;;;31.40;24.10;;;;;;5011393;28;20748;-76
2021/03/29 12:24:10;;;;;;;5.60;1.27;;;31.30;23.20;;;;;;5010584;28;20634;-75
2021/03/29 12:26:36;;;;;;;4.17;1.70;;;31.10;23.40;;;;;;5010009;28;20605;-76
2021/03/29 12:29:07;;;;;;;4.00;2.70;;;30.90;23.70;;;;;;5009701;28;20700;-77
2021/03/29 12:31:37;;;;;;;3.57;1.77;;;30.50;23.20;;;;;;5010368;28;20174;-75
2021/03/29 12:34:06;;;;;;;2.10;0.80;;;30.30;23.40;;;;;;4994258;28;20565;-76
2021/03/29 12:36:39;;;;;;;8.13;1.30;;;30.20;23.60;;;;;;5011328;28;20598;-76
2021/03/29 12:39:15;;;;;;;3.00;1.40;;;30.00;23.70;;;;;;5011765;28;20568;-76
2021/03/29 12:41:49;;;;;;;2.70;1.07;;;29.80;23.80;;;;;;5012099;28;20588;-75
2021/03/29 12:44:18;;;;;;;4.43;1.00;;;29.60;23.80;;;;;;5012514;28;20604;-75
2021/03/29 12:46:49;;;;;;;4.80;1.30;;;29.30;23.80;;;;;;5011859;28;20592;-75
2021/03/29 12:49:16;;;;;;;5.10;0.93;;;29.00;23.90;;;;;;5010751;28;21225;-75
2021/03/29 12:51:43;;;;;;;1.60;0.80;;;28.80;24.30;;;;;;5010487;28;20555;-75
2021/03/29 12:54:21;;;;;;;2.70;0.90;;;28.60;24.10;;;;;;5011875;28;20562;-76
2021/03/29 12:56:47;;;;;;;2.27;1.27;;;28.30;24.00;;;;;;5009924;28;20616;-75
2021/03/29 12:59:13;;;;;;;3.80;2.10;;;28.10;24.10;;;;;;5011559;28;20940;-75
2021/03/29 13:01:41;;;;;;;5.70;2.30;;;27.90;24.20;;;;;;5011548;28;20558;-76
2021/03/29 13:04:13;;;;;;;4.87;2.00;;;27.80;24.40;;;;;;5010150;28;20240;-76
2021/03/29 13:07:03;;;;;;;4.40;1.30;;;27.70;24.70;;;;;;5010756;28;20777;-75
2021/03/29 13:09:36;;;;;;;4.20;0.90;;;27.40;24.60;;;;;;5011513;28;20620;-75
2021/03/29 13:12:02;;;;;;;3.50;1.17;;;27.30;24.70;;;;;;5011630;28;20561;-75
2021/03/29 13:14:59;;;;;;;7.27;1.53;;;27.10;24.60;;;;;;4997429;28;20947;-75